Main page
METAR-TAF:

METAR-TAF

Airports :

Basra International Airport

Basra, Iraq

latitude: 30-32-56N, longitude: 47-39-45E, elevation: 1 m

Current weather observation

The report was made 22 minutes ago, at 10:00 UTC
Wind 18 kt from the West/Northwest
Temperature 20°C
Humidity 56%
Pressure 1019 hPa
Visibility 10 km or more
no clouds below 1500 m and no cumulonimbus

METAR: ORMM 191000Z 30018KT CAVOK 20/11 Q1019 NOSIG

Time: 13:22 (10:22 UTC)

Forecast

The report was made 6 hours and 22 minutes ago, at 04:00 UTC
Forecast valid from 19 at 06 UTC to 20 at 06 UTC
Wind 9 kt from the West/Southwest
Visibility: 6000 m
Temporary
from 19 at 09 UTC to 19 at 15 UTC
Wind 13 kt from the West/Northwest
Visibility: 8000 m
Few clouds at a height of 4000 ft

TAF: ORMM 190400Z 1906/2006 25009KT 6000 NSC TEMPO 1909/1915 30013KT 8000 FEW040

Weather observations and forecasts of more than 4000 airports (METAR and TAF reports).

The available stations are represented by yellow and red dots on the map.

Hover mouse over dot to see the name of the station.

Then click to see weather observations and forecasts.

To change the map : click on the green buttons with a black cross to zoom in, on the green button with a dash to zoom out, or on the green arrows for adjacent maps.


METAR-TAF: